< < Back
Terminal Aerodrome Forecast


Current Version              Previous Versions:   1  2  3  4  5  6  7  8  9  

Terminal Aerodrome Forecast

934
FTUS44 KOHX 271130
TAFCSV
TAF
KCSV 271130Z 2712/2812 22005KT P6SM BKN100
     FM271700 22005KT P6SM -SHRA VCTS BKN050CB
     FM280300 22004KT 5SM BR VCSH OVC035
     FM280800 24004KT 3SM BR OVC011=

Latest METAR

236
SAUS70 KWBC 271700
MTRCSV
METAR KCSV 271653Z AUTO 00000KT 10SM SCT035 SCT046 BKN100 29/22 A3010
RMK AO2 SLP167 T02890217


USA.gov is the U.S. government's official web portal to all federal, state and local government web resources and services.